PWSweather.com
Personal Weather Stations
Station Observations
KNYSYRAC2
Fairmount Hills, Fairmount, NY 13219

Fairmount HillsFairmount, NY 13219

Lat: 43.03602, Lon: -76.247151

Elevation: 663

Station Type: Ambient Weather WS-2080

http://weather.cerchia.com

High Low Average
Temperature 58.9°F14.9°F 45.9°F7.7°F 49.9°F9.9°F
Dew Point 46.3°F7.9°F 30.7°F-0.7°F 41.0°F5.0°F
Winds 10.6 mph N17.1 mph N 0.8 mph 1.3 mph 5.2 mph 8.4 mph
Wind Gusts 17.4 mph28.0 mph 1.6 mph2.6 mph 7.3 mph11.7 mph
Humidity 96% 41% 74%
Pressure 29.97 in1014.90 in 29.91 in1012.90 in -
Precipitation 0.00 in0.00 in - -
Hour Temp Dew Point Humidity Winds Wind Gusts Pressure Precip Precip Rate Daily Precip Total
12:00 AM 46.5°F8.1°C 45.4°F7.4°C 96% 3.0 mph NW4.8 kmh NW 4.5 mph7.2 kmh 29.95 in1014.2 mb 0.00 in0.0 mm 0.00 in/hr0.0 mm/hr 0.00 in0.0 mm
12:15 AM 46.5°F8.1°C 45.1°F7.3°C 95% 2.9 mph W4.7 kmh W 3.8 mph6.1 kmh 29.95 in1014.2 mb 0.00 in0.0 mm 0.00 in/hr0.0 mm/hr 0.00 in0.0 mm
12:30 AM 46.3°F7.9°C 44.9°F7.2°C 95% 3.0 mph NW4.8 kmh NW 6.0 mph9.7 kmh 29.96 in1014.6 mb 0.00 in0.0 mm 0.00 in/hr0.0 mm/hr 0.00 in0.0 mm
12:45 AM 46.3°F7.9°C 44.7°F7.1°C 94% 4.5 mph N7.2 kmh N 6.0 mph9.7 kmh 29.97 in1014.9 mb 0.00 in0.0 mm 0.00 in/hr0.0 mm/hr 0.00 in0.0 mm
01:00 AM 46.7°F8.2°C 44.5°F6.9°C 92% 4.8 mph N7.7 kmh N 9.8 mph15.8 kmh 29.96 in1014.6 mb 0.00 in0.0 mm 0.00 in/hr0.0 mm/hr 0.00 in0.0 mm
01:15 AM 46.3°F7.9°C 43.5°F6.4°C 90% 4.9 mph NW7.9 kmh NW 6.0 mph9.7 kmh 29.96 in1014.6 mb 0.00 in0.0 mm 0.00 in/hr0.0 mm/hr 0.00 in0.0 mm
01:30 AM 46.3°F7.9°C 43.2°F6.2°C 89% 5.9 mph NW9.5 kmh NW 8.3 mph13.4 kmh 29.95 in1014.2 mb 0.00 in0.0 mm 0.00 in/hr0.0 mm/hr 0.00 in0.0 mm
01:45 AM 46.3°F7.9°C 43.2°F6.2°C 89% 3.8 mph NW6.1 kmh NW 5.4 mph8.7 kmh 29.95 in1014.2 mb 0.00 in0.0 mm 0.00 in/hr0.0 mm/hr 0.00 in0.0 mm
02:00 AM 46.3°F7.9°C 42.9°F6.1°C 88% 5.4 mph NNW8.7 kmh NNW 7.6 mph12.2 kmh 29.95 in1014.2 mb 0.00 in0.0 mm 0.00 in/hr0.0 mm/hr 0.00 in0.0 mm
02:15 AM 46.3°F7.9°C 42.9°F6.1°C 88% 7.5 mph NW12.1 kmh NW 11.4 mph18.3 kmh 29.95 in1014.2 mb 0.00 in0.0 mm 0.00 in/hr0.0 mm/hr 0.00 in0.0 mm
02:30 AM 46.3°F7.9°C 42.9°F6.1°C 88% 5.7 mph NW9.2 kmh NW 7.6 mph12.2 kmh 29.95 in1014.2 mb 0.00 in0.0 mm 0.00 in/hr0.0 mm/hr 0.00 in0.0 mm
02:45 AM 46.1°F7.8°C 42.8°F6.0°C 88% 3.4 mph N5.5 kmh N 6.0 mph9.7 kmh 29.95 in1014.2 mb 0.00 in0.0 mm 0.00 in/hr0.0 mm/hr 0.00 in0.0 mm
03:00 AM 46.1°F7.8°C 42.8°F6.0°C 88% 4.3 mph NW6.9 kmh NW 7.6 mph12.2 kmh 29.96 in1014.6 mb 0.00 in0.0 mm 0.00 in/hr0.0 mm/hr 0.00 in0.0 mm
03:15 AM 46.3°F7.9°C 42.9°F6.1°C 88% 4.1 mph W6.6 kmh W 5.4 mph8.7 kmh 29.96 in1014.6 mb 0.00 in0.0 mm 0.00 in/hr0.0 mm/hr 0.00 in0.0 mm
03:30 AM 46.3°F7.9°C 42.9°F6.1°C 88% 2.8 mph NW4.5 kmh NW 3.8 mph6.1 kmh 29.95 in1014.2 mb 0.00 in0.0 mm 0.00 in/hr0.0 mm/hr 0.00 in0.0 mm
03:45 AM 46.3°F7.9°C 43.2°F6.2°C 89% 4.2 mph W6.8 kmh W 5.4 mph8.7 kmh 29.95 in1014.2 mb 0.00 in0.0 mm 0.00 in/hr0.0 mm/hr 0.00 in0.0 mm
04:00 AM 46.3°F7.9°C 43.2°F6.2°C 89% 3.2 mph WNW5.1 kmh WNW 4.5 mph7.2 kmh 29.96 in1014.6 mb 0.00 in0.0 mm 0.00 in/hr0.0 mm/hr 0.00 in0.0 mm
04:15 AM 46.3°F7.9°C 43.5°F6.4°C 90% 3.5 mph W5.6 kmh W 4.5 mph7.2 kmh 29.96 in1014.6 mb 0.00 in0.0 mm 0.00 in/hr0.0 mm/hr 0.00 in0.0 mm
04:30 AM 46.3°F7.9°C 43.8°F6.6°C 91% 3.2 mph W5.1 kmh W 4.5 mph7.2 kmh 29.96 in1014.6 mb 0.00 in0.0 mm 0.00 in/hr0.0 mm/hr 0.00 in0.0 mm
04:45 AM 46.1°F7.8°C 43.9°F6.6°C 92% 1.7 mph WNW2.7 kmh WNW 2.2 mph3.5 kmh 29.96 in1014.6 mb 0.00 in0.0 mm 0.00 in/hr0.0 mm/hr 0.00 in0.0 mm
05:00 AM 45.9°F7.7°C 43.8°F6.6°C 92% 1.6 mph WSW2.6 kmh WSW 2.2 mph3.5 kmh 29.97 in1014.9 mb 0.00 in0.0 mm 0.00 in/hr0.0 mm/hr 0.00 in0.0 mm
05:15 AM 45.9°F7.7°C 44.0°F6.7°C 93% 1.1 mph W1.8 kmh W 3.1 mph5.0 kmh 29.96 in1014.6 mb 0.00 in0.0 mm 0.00 in/hr0.0 mm/hr 0.00 in0.0 mm
05:30 AM 46.1°F7.8°C 44.2°F6.8°C 93% 1.1 mph WNW1.8 kmh WNW 2.2 mph3.5 kmh 29.97 in1014.9 mb 0.00 in0.0 mm 0.00 in/hr0.0 mm/hr 0.00 in0.0 mm
05:45 AM 46.1°F7.8°C 44.5°F6.9°C 94% 1.1 mph NW1.8 kmh NW 2.2 mph3.5 kmh 29.96 in1014.6 mb 0.00 in0.0 mm 0.00 in/hr0.0 mm/hr 0.00 in0.0 mm
06:00 AM 46.1°F7.8°C 44.5°F6.9°C 94% 2.1 mph SW3.4 kmh SW 3.1 mph5.0 kmh 29.97 in1014.9 mb 0.00 in0.0 mm 0.00 in/hr0.0 mm/hr 0.00 in0.0 mm
06:15 AM 46.1°F7.8°C 44.5°F6.9°C 94% 2.6 mph W4.2 kmh W 3.8 mph6.1 kmh 29.96 in1014.6 mb 0.00 in0.0 mm 0.00 in/hr0.0 mm/hr 0.00 in0.0 mm
06:30 AM 46.3°F7.9°C 44.7°F7.1°C 94% 3.1 mph W5.0 kmh W 4.5 mph7.2 kmh 29.96 in1014.6 mb 0.00 in0.0 mm 0.00 in/hr0.0 mm/hr 0.00 in0.0 mm
06:45 AM 46.7°F8.2°C 45.3°F7.4°C 95% 4.1 mph SW6.6 kmh SW 5.4 mph8.7 kmh 29.96 in1014.6 mb 0.00 in0.0 mm 0.00 in/hr0.0 mm/hr 0.00 in0.0 mm
07:00 AM 46.8°F8.2°C 45.5°F7.5°C 95% 4.6 mph WSW7.4 kmh WSW 5.4 mph8.7 kmh 29.95 in1014.2 mb 0.00 in0.0 mm 0.00 in/hr0.0 mm/hr 0.00 in0.0 mm
07:15 AM 47.0°F8.3°C 45.7°F7.6°C 95% 3.4 mph WSW5.5 kmh WSW 3.8 mph6.1 kmh 29.95 in1014.2 mb 0.00 in0.0 mm 0.00 in/hr0.0 mm/hr 0.00 in0.0 mm
07:30 AM 47.0°F8.3°C 45.7°F7.6°C 95% 4.2 mph W6.8 kmh W 6.0 mph9.7 kmh 29.95 in1014.2 mb 0.00 in0.0 mm 0.00 in/hr0.0 mm/hr 0.00 in0.0 mm
07:45 AM 47.0°F8.3°C 45.7°F7.6°C 95% 4.7 mph WNW7.6 kmh WNW 6.0 mph9.7 kmh 29.95 in1014.2 mb 0.00 in0.0 mm 0.00 in/hr0.0 mm/hr 0.00 in0.0 mm
08:00 AM 46.7°F8.2°C 45.3°F7.4°C 95% 4.2 mph WSW6.8 kmh WSW 6.9 mph11.1 kmh 29.96 in1014.6 mb 0.00 in0.0 mm 0.00 in/hr0.0 mm/hr 0.00 in0.0 mm
08:15 AM 46.5°F8.1°C 45.1°F7.3°C 95% 4.4 mph WSW7.1 kmh WSW 6.9 mph11.1 kmh 29.96 in1014.6 mb 0.00 in0.0 mm 0.00 in/hr0.0 mm/hr 0.00 in0.0 mm
08:30 AM 46.3°F7.9°C 44.7°F7.1°C 94% 3.7 mph W6.0 kmh W 3.8 mph6.1 kmh 29.96 in1014.6 mb 0.00 in0.0 mm 0.00 in/hr0.0 mm/hr 0.00 in0.0 mm
08:45 AM 46.1°F7.8°C 44.2°F6.8°C 93% 4.3 mph SW6.9 kmh SW 5.4 mph8.7 kmh 29.97 in1014.9 mb 0.00 in0.0 mm 0.00 in/hr0.0 mm/hr 0.00 in0.0 mm
09:00 AM 47.0°F8.3°C 45.1°F7.3°C 93% 5.1 mph W8.2 kmh W 6.0 mph9.7 kmh 29.97 in1014.9 mb 0.00 in0.0 mm 0.00 in/hr0.0 mm/hr 0.00 in0.0 mm
09:15 AM 47.7°F8.7°C 45.2°F7.3°C 91% 5.0 mph W8.0 kmh W 6.0 mph9.7 kmh 29.96 in1014.6 mb 0.00 in0.0 mm 0.00 in/hr0.0 mm/hr 0.00 in0.0 mm
09:30 AM 48.8°F9.3°C 45.4°F7.4°C 88% 6.8 mph WNW10.9 kmh WNW 10.7 mph17.2 kmh 29.96 in1014.6 mb 0.00 in0.0 mm 0.00 in/hr0.0 mm/hr 0.00 in0.0 mm
09:45 AM 49.0°F9.4°C 44.4°F6.9°C 84% 6.9 mph WSW11.1 kmh WSW 9.2 mph14.8 kmh 29.97 in1014.9 mb 0.00 in0.0 mm 0.00 in/hr0.0 mm/hr 0.00 in0.0 mm
10:00 AM 49.5°F9.7°C 44.6°F7.0°C 83% 7.4 mph NW11.9 kmh NW 11.4 mph18.3 kmh 29.96 in1014.6 mb 0.00 in0.0 mm 0.00 in/hr0.0 mm/hr 0.00 in0.0 mm
10:15 AM 50.3°F10.2°C 45.0°F7.2°C 82% 7.7 mph NW12.4 kmh NW 10.7 mph17.2 kmh 29.96 in1014.6 mb 0.00 in0.0 mm 0.00 in/hr0.0 mm/hr 0.00 in0.0 mm
10:30 AM 51.3°F10.7°C 45.1°F7.3°C 79% 7.7 mph WNW12.4 kmh WNW 10.7 mph17.2 kmh 29.95 in1014.2 mb 0.00 in0.0 mm 0.00 in/hr0.0 mm/hr 0.00 in0.0 mm
10:45 AM 51.9°F11.1°C 45.6°F7.6°C 79% 7.2 mph NW11.6 kmh NW 9.2 mph14.8 kmh 29.95 in1014.2 mb 0.00 in0.0 mm 0.00 in/hr0.0 mm/hr 0.00 in0.0 mm
11:00 AM 53.0°F11.7°C 46.3°F7.9°C 78% 5.8 mph WNW9.3 kmh WNW 8.3 mph13.4 kmh 29.95 in1014.2 mb 0.00 in0.0 mm 0.00 in/hr0.0 mm/hr 0.00 in0.0 mm
11:15 AM 53.5°F11.9°C 45.8°F7.7°C 75% 7.7 mph N12.4 kmh N 9.8 mph15.8 kmh 29.95 in1014.2 mb 0.00 in0.0 mm 0.00 in/hr0.0 mm/hr 0.00 in0.0 mm
11:30 AM 53.3°F11.8°C 44.5°F6.9°C 72% 9.5 mph NW15.3 kmh NW 17.4 mph28.0 kmh 29.95 in1014.2 mb 0.00 in0.0 mm 0.00 in/hr0.0 mm/hr 0.00 in0.0 mm
11:45 AM 53.9°F12.2°C 44.3°F6.8°C 70% 8.6 mph N13.8 kmh N 12.1 mph19.5 kmh 29.95 in1014.2 mb 0.00 in0.0 mm 0.00 in/hr0.0 mm/hr 0.00 in0.0 mm
12:00 PM 54.0°F12.2°C 44.5°F6.9°C 70% 9.8 mph WNW15.8 kmh WNW 13.0 mph20.9 kmh 29.95 in1014.2 mb 0.00 in0.0 mm 0.00 in/hr0.0 mm/hr 0.00 in0.0 mm
12:15 PM 54.6°F12.6°C 44.2°F6.8°C 68% 8.2 mph NW13.2 kmh NW 11.4 mph18.3 kmh 29.94 in1013.9 mb 0.00 in0.0 mm 0.00 in/hr0.0 mm/hr 0.00 in0.0 mm
12:30 PM 54.9°F12.7°C 43.8°F6.6°C 66% 7.2 mph NW11.6 kmh NW 9.2 mph14.8 kmh 29.94 in1013.9 mb 0.00 in0.0 mm 0.00 in/hr0.0 mm/hr 0.00 in0.0 mm
12:45 PM 55.3°F12.9°C 42.5°F5.8°C 62% 9.5 mph NW15.3 kmh NW 12.1 mph19.5 kmh 29.93 in1013.5 mb 0.00 in0.0 mm 0.00 in/hr0.0 mm/hr 0.00 in0.0 mm
01:00 PM 55.8°F13.2°C 41.7°F5.4°C 59% 8.3 mph NNW13.4 kmh NNW 13.0 mph20.9 kmh 29.92 in1013.2 mb 0.00 in0.0 mm 0.00 in/hr0.0 mm/hr 0.00 in0.0 mm
01:15 PM 56.2°F13.4°C 39.3°F4.1°C 53% 8.6 mph NNE13.8 kmh NNE 15.2 mph24.5 kmh 29.92 in1013.2 mb 0.00 in0.0 mm 0.00 in/hr0.0 mm/hr 0.00 in0.0 mm
01:30 PM 57.3°F14.1°C 40.3°F4.6°C 53% 7.6 mph NW12.2 kmh NW 9.8 mph15.8 kmh 29.91 in1012.9 mb 0.00 in0.0 mm 0.00 in/hr0.0 mm/hr 0.00 in0.0 mm
01:45 PM 57.5°F14.2°C 39.5°F4.2°C 51% 10.4 mph N16.7 kmh N 14.5 mph23.3 kmh 29.91 in1012.9 mb 0.00 in0.0 mm 0.00 in/hr0.0 mm/hr 0.00 in0.0 mm
02:00 PM 58.5°F14.7°C 38.9°F3.8°C 48% 9.4 mph NNW15.1 kmh NNW 13.6 mph21.9 kmh 29.91 in1012.9 mb 0.00 in0.0 mm 0.00 in/hr0.0 mm/hr 0.00 in0.0 mm
02:15 PM 58.9°F14.9°C 38.2°F3.4°C 46% 8.9 mph NW14.3 kmh NW 12.1 mph19.5 kmh 29.91 in1012.9 mb 0.00 in0.0 mm 0.00 in/hr0.0 mm/hr 0.00 in0.0 mm
02:30 PM 58.5°F14.7°C 36.1°F2.3°C 43% 10.5 mph SW16.9 kmh SW 13.6 mph21.9 kmh 29.91 in1012.9 mb 0.00 in0.0 mm 0.00 in/hr0.0 mm/hr 0.00 in0.0 mm
02:45 PM 58.9°F14.9°C 37.0°F2.8°C 44% 8.4 mph NW13.5 kmh NW 11.4 mph18.3 kmh 29.91 in1012.9 mb 0.00 in0.0 mm 0.00 in/hr0.0 mm/hr 0.00 in0.0 mm
03:00 PM 58.7°F14.8°C 36.3°F2.4°C 43% 8.3 mph WSW13.4 kmh WSW 11.4 mph18.3 kmh 29.91 in1012.9 mb 0.00 in0.0 mm 0.00 in/hr0.0 mm/hr 0.00 in0.0 mm
03:15 PM 57.3°F14.1°C 35.6°F2.0°C 44% 9.4 mph NNW15.1 kmh NNW 13.6 mph21.9 kmh 29.91 in1012.9 mb 0.00 in0.0 mm 0.00 in/hr0.0 mm/hr 0.00 in0.0 mm
03:30 PM 56.7°F13.7°C 35.6°F2.0°C 45% 8.1 mph WSW13.0 kmh WSW 12.1 mph19.5 kmh 29.91 in1012.9 mb 0.00 in0.0 mm 0.00 in/hr0.0 mm/hr 0.00 in0.0 mm
03:45 PM 57.3°F14.1°C 36.7°F2.6°C 46% 8.7 mph W14.0 kmh W 10.7 mph17.2 kmh 29.91 in1012.9 mb 0.00 in0.0 mm 0.00 in/hr0.0 mm/hr 0.00 in0.0 mm
04:00 PM 57.6°F14.2°C 37.0°F2.8°C 46% 7.7 mph NW12.4 kmh NW 8.3 mph13.4 kmh 29.92 in1013.2 mb 0.00 in0.0 mm 0.00 in/hr0.0 mm/hr 0.00 in0.0 mm
04:15 PM 56.6°F13.7°C 35.5°F1.9°C 45% 10.6 mph N17.1 kmh N 13.6 mph21.9 kmh 29.92 in1013.2 mb 0.00 in0.0 mm 0.00 in/hr0.0 mm/hr 0.00 in0.0 mm
04:30 PM 56.6°F13.7°C 35.5°F1.9°C 45% 6.9 mph WNW11.1 kmh WNW 9.8 mph15.8 kmh 29.91 in1012.9 mb 0.00 in0.0 mm 0.00 in/hr0.0 mm/hr 0.00 in0.0 mm
04:45 PM 56.0°F13.3°C 33.9°F1.1°C 43% 6.7 mph N10.8 kmh N 9.8 mph15.8 kmh 29.91 in1012.9 mb 0.00 in0.0 mm 0.00 in/hr0.0 mm/hr 0.00 in0.0 mm
05:00 PM 55.5°F13.1°C 32.8°F0.4°C 42% 5.6 mph NNW9.0 kmh NNW 7.6 mph12.2 kmh 29.92 in1013.2 mb 0.00 in0.0 mm 0.00 in/hr0.0 mm/hr 0.00 in0.0 mm
05:15 PM 53.9°F12.2°C 30.7°F-0.7°C 41% 5.6 mph NW9.0 kmh NW 7.6 mph12.2 kmh 29.91 in1012.9 mb 0.00 in0.0 mm 0.00 in/hr0.0 mm/hr 0.00 in0.0 mm
05:30 PM 53.0°F11.7°C 31.1°F-0.5°C 43% 4.7 mph W7.6 kmh W 6.0 mph9.7 kmh 29.91 in1012.9 mb 0.00 in0.0 mm 0.00 in/hr0.0 mm/hr 0.00 in0.0 mm
05:45 PM 52.2°F11.2°C 33.2°F0.7°C 48% 3.0 mph N4.8 kmh N 3.8 mph6.1 kmh 29.91 in1012.9 mb 0.00 in0.0 mm 0.00 in/hr0.0 mm/hr 0.00 in0.0 mm
06:00 PM 51.5°F10.8°C 34.0°F1.1°C 51% 3.4 mph NNW5.5 kmh NNW 6.9 mph11.1 kmh 29.91 in1012.9 mb 0.00 in0.0 mm 0.00 in/hr0.0 mm/hr 0.00 in0.0 mm
06:15 PM 51.0°F10.6°C 34.9°F1.6°C 54% 3.3 mph NW5.3 kmh NW 4.5 mph7.2 kmh 29.91 in1012.9 mb 0.00 in0.0 mm 0.00 in/hr0.0 mm/hr 0.00 in0.0 mm
06:30 PM 50.1°F10.1°C 36.3°F2.4°C 59% 0.9 mph W1.4 kmh W 1.6 mph2.6 kmh 29.92 in1013.2 mb 0.00 in0.0 mm 0.00 in/hr0.0 mm/hr 0.00 in0.0 mm
06:45 PM 49.4°F9.7°C 36.5°F2.5°C 61% 0.8 mph SSW1.3 kmh SSW 2.2 mph3.5 kmh 29.91 in1012.9 mb 0.00 in0.0 mm 0.00 in/hr0.0 mm/hr 0.00 in0.0 mm
07:00 PM 49.0°F9.4°C 37.0°F2.8°C 63% 2.0 mph S3.2 kmh S 2.2 mph3.5 kmh 29.92 in1013.2 mb 0.00 in0.0 mm 0.00 in/hr0.0 mm/hr 0.00 in0.0 mm
07:15 PM 49.0°F9.4°C 37.4°F3.0°C 64% 2.4 mph SW3.9 kmh SW 3.1 mph5.0 kmh 29.92 in1013.2 mb 0.00 in0.0 mm 0.00 in/hr0.0 mm/hr 0.00 in0.0 mm
07:30 PM 49.0°F9.4°C 38.1°F3.4°C 66% 1.9 mph SSW3.1 kmh SSW 3.1 mph5.0 kmh 29.93 in1013.5 mb 0.00 in0.0 mm 0.00 in/hr0.0 mm/hr 0.00 in0.0 mm
07:45 PM 49.0°F9.4°C 38.5°F3.6°C 67% 3.2 mph SSW5.1 kmh SSW 4.5 mph7.2 kmh 29.93 in1013.5 mb 0.00 in0.0 mm 0.00 in/hr0.0 mm/hr 0.00 in0.0 mm
08:00 PM 49.0°F9.4°C 38.5°F3.6°C 67% 3.3 mph SW5.3 kmh SW 3.8 mph6.1 kmh 29.93 in1013.5 mb 0.00 in0.0 mm 0.00 in/hr0.0 mm/hr 0.00 in0.0 mm
08:15 PM 48.6°F9.2°C 38.9°F3.8°C 69% 1.4 mph S2.3 kmh S 2.2 mph3.5 kmh 29.93 in1013.5 mb 0.00 in0.0 mm 0.00 in/hr0.0 mm/hr 0.00 in0.0 mm
08:30 PM 48.3°F9.1°C 39.0°F3.9°C 70% 1.9 mph SW3.1 kmh SW 3.1 mph5.0 kmh 29.93 in1013.5 mb 0.00 in0.0 mm 0.00 in/hr0.0 mm/hr 0.00 in0.0 mm
08:45 PM 47.9°F8.8°C 39.0°F3.9°C 71% 2.3 mph SW3.7 kmh SW 4.5 mph7.2 kmh 29.93 in1013.5 mb 0.00 in0.0 mm 0.00 in/hr0.0 mm/hr 0.00 in0.0 mm
09:00 PM 47.7°F8.7°C 39.2°F4.0°C 72% 4.0 mph SSW6.4 kmh SSW 5.4 mph8.7 kmh 29.93 in1013.5 mb 0.00 in0.0 mm 0.00 in/hr0.0 mm/hr 0.00 in0.0 mm
09:15 PM 47.9°F8.8°C 39.0°F3.9°C 71% 4.2 mph SW6.8 kmh SW 5.4 mph8.7 kmh 29.93 in1013.5 mb 0.00 in0.0 mm 0.00 in/hr0.0 mm/hr 0.00 in0.0 mm
09:30 PM 48.1°F8.9°C 38.8°F3.8°C 70% 6.8 mph SW10.9 kmh SW 7.6 mph12.2 kmh 29.93 in1013.5 mb 0.00 in0.0 mm 0.00 in/hr0.0 mm/hr 0.00 in0.0 mm
09:45 PM 48.1°F8.9°C 37.7°F3.2°C 67% 5.1 mph SSW8.2 kmh SSW 8.3 mph13.4 kmh 29.93 in1013.5 mb 0.00 in0.0 mm 0.00 in/hr0.0 mm/hr 0.00 in0.0 mm
10:00 PM 47.9°F8.8°C 37.1°F2.8°C 66% 5.7 mph SSW9.2 kmh SSW 6.0 mph9.7 kmh 29.93 in1013.5 mb 0.00 in0.0 mm 0.00 in/hr0.0 mm/hr 0.00 in0.0 mm
10:15 PM 47.7°F8.7°C 36.6°F2.6°C 65% 4.3 mph SW6.9 kmh SW 6.0 mph9.7 kmh 29.93 in1013.5 mb 0.00 in0.0 mm 0.00 in/hr0.0 mm/hr 0.00 in0.0 mm
10:30 PM 47.4°F8.6°C 36.6°F2.6°C 66% 5.3 mph SW8.5 kmh SW 5.4 mph8.7 kmh 29.93 in1013.5 mb 0.00 in0.0 mm 0.00 in/hr0.0 mm/hr 0.00 in0.0 mm
10:45 PM 47.2°F8.4°C 37.2°F2.9°C 68% 6.3 mph SW10.1 kmh SW 7.6 mph12.2 kmh 29.93 in1013.5 mb 0.00 in0.0 mm 0.00 in/hr0.0 mm/hr 0.00 in0.0 mm
11:00 PM 47.2°F8.4°C 37.6°F3.1°C 69% 5.6 mph SW9.0 kmh SW 9.2 mph14.8 kmh 29.92 in1013.2 mb 0.00 in0.0 mm 0.00 in/hr0.0 mm/hr 0.00 in0.0 mm
11:15 PM 47.2°F8.4°C 38.3°F3.5°C 71% 4.7 mph SSW7.6 kmh SSW 5.4 mph8.7 kmh 29.92 in1013.2 mb 0.00 in0.0 mm 0.00 in/hr0.0 mm/hr 0.00 in0.0 mm
11:30 PM 47.2°F8.4°C 38.6°F3.7°C 72% 6.7 mph SW10.8 kmh SW 9.2 mph14.8 kmh 29.92 in1013.2 mb 0.00 in0.0 mm 0.00 in/hr0.0 mm/hr 0.00 in0.0 mm
11:45 PM 47.4°F8.6°C 39.5°F4.2°C 74% 6.6 mph SW10.6 kmh SW 9.2 mph14.8 kmh 29.92 in1013.2 mb 0.00 in0.0 mm 0.00 in/hr0.0 mm/hr 0.00 in0.0 mm